sensor_id;sensor_type;location;lat;lon;timestamp;temperature;humidity
9305;DHT22;4690;52.422;13.486;2022-08-19T00:04:09;22.30;99.90
9305;DHT22;4690;52.422;13.486;2022-08-19T00:06:40;22.20;99.90
9305;DHT22;4690;52.422;13.486;2022-08-19T00:09:10;22.20;99.90
9305;DHT22;4690;52.422;13.486;2022-08-19T00:11:38;22.30;99.90
9305;DHT22;4690;52.422;13.486;2022-08-19T00:14:07;22.20;99.90
9305;DHT22;4690;52.422;13.486;2022-08-19T00:16:36;22.20;99.90
9305;DHT22;4690;52.422;13.486;2022-08-19T00:19:04;22.20;99.90
9305;DHT22;4690;52.422;13.486;2022-08-19T00:21:30;22.20;99.90
9305;DHT22;4690;52.422;13.486;2022-08-19T00:23:56;22.20;99.90
9305;DHT22;4690;52.422;13.486;2022-08-19T00:26:27;22.10;99.90
9305;DHT22;4690;52.422;13.486;2022-08-19T00:28:54;22.10;99.90
9305;DHT22;4690;52.422;13.486;2022-08-19T00:31:20;22.10;99.90
9305;DHT22;4690;52.422;13.486;2022-08-19T00:33:47;22.10;99.90
9305;DHT22;4690;52.422;13.486;2022-08-19T00:36:14;22.10;99.90
9305;DHT22;4690;52.422;13.486;2022-08-19T00:38:40;22.00;99.90
9305;DHT22;4690;52.422;13.486;2022-08-19T00:41:10;22.00;99.90
9305;DHT22;4690;52.422;13.486;2022-08-19T00:43:38;22.00;99.90
9305;DHT22;4690;52.422;13.486;2022-08-19T00:46:05;22.00;99.90
9305;DHT22;4690;52.422;13.486;2022-08-19T00:48:32;21.90;99.90
9305;DHT22;4690;52.422;13.486;2022-08-19T00:50:59;21.80;99.90
9305;DHT22;4690;52.422;13.486;2022-08-19T00:53:28;21.80;99.90
9305;DHT22;4690;52.422;13.486;2022-08-19T00:55:59;21.70;99.90
9305;DHT22;4690;52.422;13.486;2022-08-19T00:58:31;21.70;99.90
9305;DHT22;4690;52.422;13.486;2022-08-19T01:00:59;21.60;99.90
9305;DHT22;4690;52.422;13.486;2022-08-19T01:03:26;21.50;99.90
9305;DHT22;4690;52.422;13.486;2022-08-19T01:05:54;21.50;99.90
9305;DHT22;4690;52.422;13.486;2022-08-19T01:08:21;21.50;99.90
9305;DHT22;4690;52.422;13.486;2022-08-19T01:10:52;21.20;99.90
9305;DHT22;4690;52.422;13.486;2022-08-19T01:13:23;21.10;99.90
9305;DHT22;4690;52.422;13.486;2022-08-19T01:16:02;20.90;99.90
9305;DHT22;4690;52.422;13.486;2022-08-19T01:18:32;20.80;99.90
9305;DHT22;4690;52.422;13.486;2022-08-19T01:21:04;20.80;99.90
9305;DHT22;4690;52.422;13.486;2022-08-19T01:23:36;20.80;99.90
9305;DHT22;4690;52.422;13.486;2022-08-19T01:26:16;20.80;99.90
9305;DHT22;4690;52.422;13.486;2022-08-19T01:28:48;20.60;99.90
9305;DHT22;4690;52.422;13.486;2022-08-19T01:31:21;20.60;99.90
9305;DHT22;4690;52.422;13.486;2022-08-19T01:33:51;20.60;99.90
9305;DHT22;4690;52.422;13.486;2022-08-19T01:36:26;20.60;99.90
9305;DHT22;4690;52.422;13.486;2022-08-19T01:38:55;20.60;99.90
9305;DHT22;4690;52.422;13.486;2022-08-19T01:41:21;20.60;99.90
9305;DHT22;4690;52.422;13.486;2022-08-19T01:43:49;20.50;99.90
9305;DHT22;4690;52.422;13.486;2022-08-19T01:46:16;20.50;99.90
9305;DHT22;4690;52.422;13.486;2022-08-19T01:48:43;20.40;99.90
9305;DHT22;4690;52.422;13.486;2022-08-19T01:51:10;20.40;99.90
9305;DHT22;4690;52.422;13.486;2022-08-19T01:53:37;20.30;99.90
9305;DHT22;4690;52.422;13.486;2022-08-19T01:56:04;20.20;99.90
9305;DHT22;4690;52.422;13.486;2022-08-19T01:58:38;20.20;99.90
9305;DHT22;4690;52.422;13.486;2022-08-19T02:01:11;20.20;99.90
9305;DHT22;4690;52.422;13.486;2022-08-19T02:03:38;20.20;99.90
9305;DHT22;4690;52.422;13.486;2022-08-19T02:06:04;20.20;99.90
9305;DHT22;4690;52.422;13.486;2022-08-19T02:08:31;20.10;99.90
9305;DHT22;4690;52.422;13.486;2022-08-19T02:11:00;20.10;99.90
9305;DHT22;4690;52.422;13.486;2022-08-19T02:13:26;20.10;99.90
9305;DHT22;4690;52.422;13.486;2022-08-19T02:15:52;20.10;99.90
9305;DHT22;4690;52.422;13.486;2022-08-19T02:18:18;20.00;99.90
9305;DHT22;4690;52.422;13.486;2022-08-19T02:20:44;19.90;99.90
9305;DHT22;4690;52.422;13.486;2022-08-19T02:23:16;19.90;99.90
9305;DHT22;4690;52.422;13.486;2022-08-19T02:25:46;20.00;99.90
9305;DHT22;4690;52.422;13.486;2022-08-19T02:28:13;19.90;99.90
9305;DHT22;4690;52.422;13.486;2022-08-19T02:30:42;20.00;99.90
9305;DHT22;4690;52.422;13.486;2022-08-19T02:33:08;20.00;99.90
9305;DHT22;4690;52.422;13.486;2022-08-19T02:35:33;19.90;99.90
9305;DHT22;4690;52.422;13.486;2022-08-19T02:37:59;19.90;99.90
9305;DHT22;4690;52.422;13.486;2022-08-19T02:40:52;19.90;99.90
9305;DHT22;4690;52.422;13.486;2022-08-19T02:43:32;19.90;99.90
9305;DHT22;4690;52.422;13.486;2022-08-19T02:46:11;19.90;99.90
9305;DHT22;4690;52.422;13.486;2022-08-19T02:48:49;20.00;99.90
9305;DHT22;4690;52.422;13.486;2022-08-19T02:51:25;20.00;99.90
9305;DHT22;4690;52.422;13.486;2022-08-19T02:53:58;20.00;99.90
9305;DHT22;4690;52.422;13.486;2022-08-19T02:56:25;20.00;99.90
9305;DHT22;4690;52.422;13.486;2022-08-19T02:58:53;20.10;99.90
9305;DHT22;4690;52.422;13.486;2022-08-19T03:03:53;20.10;99.90
9305;DHT22;4690;52.422;13.486;2022-08-19T03:06:19;20.00;99.90
9305;DHT22;4690;52.422;13.486;2022-08-19T03:08:46;20.10;99.90
9305;DHT22;4690;52.422;13.486;2022-08-19T03:11:20;20.10;99.90
9305;DHT22;4690;52.422;13.486;2022-08-19T03:13:48;20.10;99.90
9305;DHT22;4690;52.422;13.486;2022-08-19T03:16:15;20.00;99.90
9305;DHT22;4690;52.422;13.486;2022-08-19T03:18:42;20.00;99.90
9305;DHT22;4690;52.422;13.486;2022-08-19T03:21:09;20.00;99.90
9305;DHT22;4690;52.422;13.486;2022-08-19T03:23:35;20.10;99.90
9305;DHT22;4690;52.422;13.486;2022-08-19T03:26:05;20.10;99.90
9305;DHT22;4690;52.422;13.486;2022-08-19T03:28:31;20.10;99.90
9305;DHT22;4690;52.422;13.486;2022-08-19T03:31:07;20.00;99.90
9305;DHT22;4690;52.422;13.486;2022-08-19T03:33:35;20.00;99.90
9305;DHT22;4690;52.422;13.486;2022-08-19T03:38:36;20.00;99.90
9305;DHT22;4690;52.422;13.486;2022-08-19T03:41:10;20.00;99.90
9305;DHT22;4690;52.422;13.486;2022-08-19T03:43:40;19.90;99.90
9305;DHT22;4690;52.422;13.486;2022-08-19T03:46:13;19.90;99.90
9305;DHT22;4690;52.422;13.486;2022-08-19T03:48:44;20.00;99.90
9305;DHT22;4690;52.422;13.486;2022-08-19T03:51:37;19.90;99.90
9305;DHT22;4690;52.422;13.486;2022-08-19T03:54:07;19.90;99.90
9305;DHT22;4690;52.422;13.486;2022-08-19T03:56:36;19.90;99.90
9305;DHT22;4690;52.422;13.486;2022-08-19T03:59:03;19.90;99.90
9305;DHT22;4690;52.422;13.486;2022-08-19T04:01:31;19.80;99.90
9305;DHT22;4690;52.422;13.486;2022-08-19T04:03:58;19.80;99.90
9305;DHT22;4690;52.422;13.486;2022-08-19T04:06:26;19.90;99.90
9305;DHT22;4690;52.422;13.486;2022-08-19T04:08:57;19.90;99.90
9305;DHT22;4690;52.422;13.486;2022-08-19T04:11:34;19.80;99.90
9305;DHT22;4690;52.422;13.486;2022-08-19T04:14:07;19.80;99.90
9305;DHT22;4690;52.422;13.486;2022-08-19T04:16:35;19.80;99.90
9305;DHT22;4690;52.422;13.486;2022-08-19T04:19:04;19.90;99.90
9305;DHT22;4690;52.422;13.486;2022-08-19T04:21:30;19.80;99.90
9305;DHT22;4690;52.422;13.486;2022-08-19T04:23:57;19.90;99.90
9305;DHT22;4690;52.422;13.486;2022-08-19T04:26:26;19.90;99.90
9305;DHT22;4690;52.422;13.486;2022-08-19T04:28:54;19.90;99.90
9305;DHT22;4690;52.422;13.486;2022-08-19T04:31:26;19.90;99.90
9305;DHT22;4690;52.422;13.486;2022-08-19T04:33:55;20.00;99.90
9305;DHT22;4690;52.422;13.486;2022-08-19T04:36:31;20.00;99.90
9305;DHT22;4690;52.422;13.486;2022-08-19T04:39:05;20.00;99.90
9305;DHT22;4690;52.422;13.486;2022-08-19T04:41:33;20.00;99.90
9305;DHT22;4690;52.422;13.486;2022-08-19T04:44:18;20.00;99.90
9305;DHT22;4690;52.422;13.486;2022-08-19T04:46:49;20.00;99.90
9305;DHT22;4690;52.422;13.486;2022-08-19T04:49:17;20.10;99.90
9305;DHT22;4690;52.422;13.486;2022-08-19T04:51:47;20.10;99.90
9305;DHT22;4690;52.422;13.486;2022-08-19T04:54:16;20.10;99.90
9305;DHT22;4690;52.422;13.486;2022-08-19T04:56:43;20.10;99.90
9305;DHT22;4690;52.422;13.486;2022-08-19T04:59:09;20.20;99.90
9305;DHT22;4690;52.422;13.486;2022-08-19T05:01:36;20.20;99.90
9305;DHT22;4690;52.422;13.486;2022-08-19T05:04:03;20.20;99.90
9305;DHT22;4690;52.422;13.486;2022-08-19T05:06:31;20.20;99.90
9305;DHT22;4690;52.422;13.486;2022-08-19T05:09:03;20.30;99.90
9305;DHT22;4690;52.422;13.486;2022-08-19T05:11:33;20.20;99.90
9305;DHT22;4690;52.422;13.486;2022-08-19T05:14:01;20.20;99.90
9305;DHT22;4690;52.422;13.486;2022-08-19T05:16:27;20.20;99.90
9305;DHT22;4690;52.422;13.486;2022-08-19T05:18:54;20.20;99.90
9305;DHT22;4690;52.422;13.486;2022-08-19T05:21:41;20.30;99.90
9305;DHT22;4690;52.422;13.486;2022-08-19T05:24:27;20.20;99.90
9305;DHT22;4690;52.422;13.486;2022-08-19T05:26:54;20.20;99.90
9305;DHT22;4690;52.422;13.486;2022-08-19T05:29:26;20.20;99.90
9305;DHT22;4690;52.422;13.486;2022-08-19T05:31:53;20.20;99.90
9305;DHT22;4690;52.422;13.486;2022-08-19T05:34:21;20.30;99.90
9305;DHT22;4690;52.422;13.486;2022-08-19T05:36:55;20.30;99.90
9305;DHT22;4690;52.422;13.486;2022-08-19T05:39:27;20.40;99.90
9305;DHT22;4690;52.422;13.486;2022-08-19T05:41:57;20.30;99.90
9305;DHT22;4690;52.422;13.486;2022-08-19T05:44:26;20.40;99.90
9305;DHT22;4690;52.422;13.486;2022-08-19T05:47:00;20.40;99.90
9305;DHT22;4690;52.422;13.486;2022-08-19T05:49:28;20.50;99.90
9305;DHT22;4690;52.422;13.486;2022-08-19T05:51:55;20.40;99.90
9305;DHT22;4690;52.422;13.486;2022-08-19T05:54:22;20.40;99.90
9305;DHT22;4690;52.422;13.486;2022-08-19T05:56:50;20.40;99.90
9305;DHT22;4690;52.422;13.486;2022-08-19T05:59:18;20.40;99.90
9305;DHT22;4690;52.422;13.486;2022-08-19T06:01:47;20.40;99.90
9305;DHT22;4690;52.422;13.486;2022-08-19T06:04:18;20.50;99.90
9305;DHT22;4690;52.422;13.486;2022-08-19T06:06:46;20.40;99.90
9305;DHT22;4690;52.422;13.486;2022-08-19T06:09:14;20.40;99.90
9305;DHT22;4690;52.422;13.486;2022-08-19T06:14:14;20.50;99.90
9305;DHT22;4690;52.422;13.486;2022-08-19T06:16:43;20.50;99.90
9305;DHT22;4690;52.422;13.486;2022-08-19T06:19:15;20.30;99.90
9305;DHT22;4690;52.422;13.486;2022-08-19T06:21:44;20.40;99.90
9305;DHT22;4690;52.422;13.486;2022-08-19T06:24:14;20.50;99.90
9305;DHT22;4690;52.422;13.486;2022-08-19T06:26:45;20.40;99.90
9305;DHT22;4690;52.422;13.486;2022-08-19T06:29:14;20.50;99.90
9305;DHT22;4690;52.422;13.486;2022-08-19T06:31:44;20.50;99.90
9305;DHT22;4690;52.422;13.486;2022-08-19T06:34:15;20.50;99.90
9305;DHT22;4690;52.422;13.486;2022-08-19T06:36:45;20.50;99.90
9305;DHT22;4690;52.422;13.486;2022-08-19T06:39:25;20.60;99.90
9305;DHT22;4690;52.422;13.486;2022-08-19T06:41:55;20.70;99.90
9305;DHT22;4690;52.422;13.486;2022-08-19T06:44:24;20.70;99.90
9305;DHT22;4690;52.422;13.486;2022-08-19T06:46:55;20.60;99.90
9305;DHT22;4690;52.422;13.486;2022-08-19T06:49:22;20.70;99.90
9305;DHT22;4690;52.422;13.486;2022-08-19T06:51:49;20.80;99.90
9305;DHT22;4690;52.422;13.486;2022-08-19T06:54:17;20.80;99.90
9305;DHT22;4690;52.422;13.486;2022-08-19T06:56:43;20.70;99.90
9305;DHT22;4690;52.422;13.486;2022-08-19T06:59:13;20.80;99.90
9305;DHT22;4690;52.422;13.486;2022-08-19T07:01:49;20.80;99.90
9305;DHT22;4690;52.422;13.486;2022-08-19T07:04:19;20.90;99.90
9305;DHT22;4690;52.422;13.486;2022-08-19T07:06:47;20.90;99.90
9305;DHT22;4690;52.422;13.486;2022-08-19T07:09:15;20.80;99.90
9305;DHT22;4690;52.422;13.486;2022-08-19T07:11:50;21.00;99.90
9305;DHT22;4690;52.422;13.486;2022-08-19T07:14:21;20.80;99.90
9305;DHT22;4690;52.422;13.486;2022-08-19T07:16:51;21.00;99.90
9305;DHT22;4690;52.422;13.486;2022-08-19T07:19:20;20.80;99.90
9305;DHT22;4690;52.422;13.486;2022-08-19T07:21:49;21.00;99.90
9305;DHT22;4690;52.422;13.486;2022-08-19T07:24:20;21.00;99.90
9305;DHT22;4690;52.422;13.486;2022-08-19T07:26:56;20.90;99.90
9305;DHT22;4690;52.422;13.486;2022-08-19T07:29:28;21.00;99.90
9305;DHT22;4690;52.422;13.486;2022-08-19T07:31:56;21.10;99.90
9305;DHT22;4690;52.422;13.486;2022-08-19T07:34:24;21.20;99.90
9305;DHT22;4690;52.422;13.486;2022-08-19T07:36:52;21.20;99.90
9305;DHT22;4690;52.422;13.486;2022-08-19T07:39:24;21.20;99.90
9305;DHT22;4690;52.422;13.486;2022-08-19T07:41:53;21.20;99.90
9305;DHT22;4690;52.422;13.486;2022-08-19T07:44:20;21.30;99.90
9305;DHT22;4690;52.422;13.486;2022-08-19T07:46:52;21.40;99.90
9305;DHT22;4690;52.422;13.486;2022-08-19T07:49:20;21.40;99.90
9305;DHT22;4690;52.422;13.486;2022-08-19T07:51:49;21.40;99.90
9305;DHT22;4690;52.422;13.486;2022-08-19T07:54:22;21.40;99.90
9305;DHT22;4690;52.422;13.486;2022-08-19T07:56:50;21.50;99.90
9305;DHT22;4690;52.422;13.486;2022-08-19T07:59:17;21.50;99.90
9305;DHT22;4690;52.422;13.486;2022-08-19T08:01:46;21.60;99.90
9305;DHT22;4690;52.422;13.486;2022-08-19T08:04:13;21.60;99.90
9305;DHT22;4690;52.422;13.486;2022-08-19T08:06:58;21.70;99.90
9305;DHT22;4690;52.422;13.486;2022-08-19T08:09:43;21.70;99.90
9305;DHT22;4690;52.422;13.486;2022-08-19T08:12:10;21.70;99.90
9305;DHT22;4690;52.422;13.486;2022-08-19T08:14:51;21.50;99.90
9305;DHT22;4690;52.422;13.486;2022-08-19T08:17:24;21.80;99.90
9305;DHT22;4690;52.422;13.486;2022-08-19T08:19:52;21.70;99.90
9305;DHT22;4690;52.422;13.486;2022-08-19T08:22:20;21.70;99.90
9305;DHT22;4690;52.422;13.486;2022-08-19T08:25:12;21.80;99.90
9305;DHT22;4690;52.422;13.486;2022-08-19T08:27:41;22.00;99.90
9305;DHT22;4690;52.422;13.486;2022-08-19T08:30:14;22.20;99.90
9305;DHT22;4690;52.422;13.486;2022-08-19T08:32:42;22.30;99.90
9305;DHT22;4690;52.422;13.486;2022-08-19T08:35:11;22.30;99.90
9305;DHT22;4690;52.422;13.486;2022-08-19T08:37:39;22.10;99.90
9305;DHT22;4690;52.422;13.486;2022-08-19T08:40:14;22.00;99.90
9305;DHT22;4690;52.422;13.486;2022-08-19T08:42:53;22.10;99.90
9305;DHT22;4690;52.422;13.486;2022-08-19T08:45:27;22.00;99.90
9305;DHT22;4690;52.422;13.486;2022-08-19T08:47:56;22.10;99.90
9305;DHT22;4690;52.422;13.486;2022-08-19T08:50:41;22.10;99.90
9305;DHT22;4690;52.422;13.486;2022-08-19T08:53:13;22.00;99.90
9305;DHT22;4690;52.422;13.486;2022-08-19T08:55:42;22.00;99.90
9305;DHT22;4690;52.422;13.486;2022-08-19T08:58:15;22.10;99.90
9305;DHT22;4690;52.422;13.486;2022-08-19T09:00:49;22.10;99.90
9305;DHT22;4690;52.422;13.486;2022-08-19T09:03:24;22.10;99.90
9305;DHT22;4690;52.422;13.486;2022-08-19T09:09:17;22.40;99.90
9305;DHT22;4690;52.422;13.486;2022-08-19T09:12:17;22.40;99.90
9305;DHT22;4690;52.422;13.486;2022-08-19T09:15:07;22.50;99.90
9305;DHT22;4690;52.422;13.486;2022-08-19T09:17:36;22.40;99.90
9305;DHT22;4690;52.422;13.486;2022-08-19T09:22:37;22.30;99.90
9305;DHT22;4690;52.422;13.486;2022-08-19T09:25:06;22.30;99.90
9305;DHT22;4690;52.422;13.486;2022-08-19T09:27:34;22.30;99.90
9305;DHT22;4690;52.422;13.486;2022-08-19T09:30:04;22.30;99.90
9305;DHT22;4690;52.422;13.486;2022-08-19T09:32:33;22.30;99.90
9305;DHT22;4690;52.422;13.486;2022-08-19T09:34:59;22.20;99.90
9305;DHT22;4690;52.422;13.486;2022-08-19T09:37:26;22.30;99.90
9305;DHT22;4690;52.422;13.486;2022-08-19T09:39:53;22.30;99.90
9305;DHT22;4690;52.422;13.486;2022-08-19T09:42:19;22.40;99.90
9305;DHT22;4690;52.422;13.486;2022-08-19T09:44:45;22.60;99.90
9305;DHT22;4690;52.422;13.486;2022-08-19T09:47:12;22.40;99.90
9305;DHT22;4690;52.422;13.486;2022-08-19T09:49:39;22.40;99.90
9305;DHT22;4690;52.422;13.486;2022-08-19T09:52:08;22.30;99.90
9305;DHT22;4690;52.422;13.486;2022-08-19T09:54:37;22.50;99.90
9305;DHT22;4690;52.422;13.486;2022-08-19T09:57:04;22.50;99.90
9305;DHT22;4690;52.422;13.486;2022-08-19T09:59:30;22.60;99.90
9305;DHT22;4690;52.422;13.486;2022-08-19T10:01:59;22.60;99.90
9305;DHT22;4690;52.422;13.486;2022-08-19T10:04:24;22.50;99.90
9305;DHT22;4690;52.422;13.486;2022-08-19T10:07:10;22.40;99.90
9305;DHT22;4690;52.422;13.486;2022-08-19T10:09:36;22.40;99.90
9305;DHT22;4690;52.422;13.486;2022-08-19T10:12:04;22.50;99.90
9305;DHT22;4690;52.422;13.486;2022-08-19T10:14:31;22.50;99.90
9305;DHT22;4690;52.422;13.486;2022-08-19T10:16:57;22.50;99.90
9305;DHT22;4690;52.422;13.486;2022-08-19T10:19:22;22.50;99.90
9305;DHT22;4690;52.422;13.486;2022-08-19T10:21:48;22.50;99.90
9305;DHT22;4690;52.422;13.486;2022-08-19T10:24:14;22.40;99.90
9305;DHT22;4690;52.422;13.486;2022-08-19T10:26:40;22.30;99.90
9305;DHT22;4690;52.422;13.486;2022-08-19T10:29:13;22.30;99.90
9305;DHT22;4690;52.422;13.486;2022-08-19T10:31:41;22.20;99.90
9305;DHT22;4690;52.422;13.486;2022-08-19T10:34:07;22.20;99.90
9305;DHT22;4690;52.422;13.486;2022-08-19T10:36:36;22.10;99.90
9305;DHT22;4690;52.422;13.486;2022-08-19T10:39:05;22.10;99.90
9305;DHT22;4690;52.422;13.486;2022-08-19T10:41:36;22.00;99.90
9305;DHT22;4690;52.422;13.486;2022-08-19T10:44:07;22.00;99.90
9305;DHT22;4690;52.422;13.486;2022-08-19T10:46:37;22.00;99.90
9305;DHT22;4690;52.422;13.486;2022-08-19T10:49:09;21.80;99.90
9305;DHT22;4690;52.422;13.486;2022-08-19T10:51:38;22.00;99.90
9305;DHT22;4690;52.422;13.486;2022-08-19T10:54:23;22.00;99.90
9305;DHT22;4690;52.422;13.486;2022-08-19T10:57:09;22.00;99.90
9305;DHT22;4690;52.422;13.486;2022-08-19T10:59:36;22.00;99.90
9305;DHT22;4690;52.422;13.486;2022-08-19T11:02:05;22.10;99.90
9305;DHT22;4690;52.422;13.486;2022-08-19T11:04:36;22.50;99.90
9305;DHT22;4690;52.422;13.486;2022-08-19T11:07:04;22.60;99.90
9305;DHT22;4690;52.422;13.486;2022-08-19T11:09:31;22.70;99.90
9305;DHT22;4690;52.422;13.486;2022-08-19T11:12:01;22.70;99.90
9305;DHT22;4690;52.422;13.486;2022-08-19T11:14:27;22.80;99.90
9305;DHT22;4690;52.422;13.486;2022-08-19T11:16:56;22.90;99.90
9305;DHT22;4690;52.422;13.486;2022-08-19T11:19:22;22.90;99.90
9305;DHT22;4690;52.422;13.486;2022-08-19T11:21:50;22.90;99.90
9305;DHT22;4690;52.422;13.486;2022-08-19T11:24:19;23.00;99.90
9305;DHT22;4690;52.422;13.486;2022-08-19T11:26:49;23.00;99.90
9305;DHT22;4690;52.422;13.486;2022-08-19T11:29:18;22.90;99.90
9305;DHT22;4690;52.422;13.486;2022-08-19T11:31:48;22.90;99.90
9305;DHT22;4690;52.422;13.486;2022-08-19T11:34:18;22.90;99.90
9305;DHT22;4690;52.422;13.486;2022-08-19T11:36:46;22.80;99.90
9305;DHT22;4690;52.422;13.486;2022-08-19T11:39:14;22.80;99.90
9305;DHT22;4690;52.422;13.486;2022-08-19T11:41:42;22.80;99.90
9305;DHT22;4690;52.422;13.486;2022-08-19T11:44:08;22.90;99.90
9305;DHT22;4690;52.422;13.486;2022-08-19T11:46:37;22.90;99.90
9305;DHT22;4690;52.422;13.486;2022-08-19T11:49:06;22.90;99.90
9305;DHT22;4690;52.422;13.486;2022-08-19T11:51:33;23.00;99.90
9305;DHT22;4690;52.422;13.486;2022-08-19T11:53:59;23.00;99.90
9305;DHT22;4690;52.422;13.486;2022-08-19T11:56:26;23.10;99.90
9305;DHT22;4690;52.422;13.486;2022-08-19T11:58:54;23.20;99.90
9305;DHT22;4690;52.422;13.486;2022-08-19T12:01:24;23.20;99.90
9305;DHT22;4690;52.422;13.486;2022-08-19T12:03:52;23.30;99.90
9305;DHT22;4690;52.422;13.486;2022-08-19T12:06:29;23.40;99.90
9305;DHT22;4690;52.422;13.486;2022-08-19T12:08:59;23.40;99.90
9305;DHT22;4690;52.422;13.486;2022-08-19T12:11:27;23.40;99.90
9305;DHT22;4690;52.422;13.486;2022-08-19T12:13:53;23.40;99.90
9305;DHT22;4690;52.422;13.486;2022-08-19T12:16:26;23.60;99.90
9305;DHT22;4690;52.422;13.486;2022-08-19T12:18:54;23.60;99.90
9305;DHT22;4690;52.422;13.486;2022-08-19T12:21:25;23.60;99.90
9305;DHT22;4690;52.422;13.486;2022-08-19T12:23:54;23.60;99.90
9305;DHT22;4690;52.422;13.486;2022-08-19T12:26:22;23.60;99.90
9305;DHT22;4690;52.422;13.486;2022-08-19T12:28:48;23.70;99.90
9305;DHT22;4690;52.422;13.486;2022-08-19T12:31:14;23.80;99.90
9305;DHT22;4690;52.422;13.486;2022-08-19T12:33:41;23.80;99.90
9305;DHT22;4690;52.422;13.486;2022-08-19T12:36:11;23.90;99.90
9305;DHT22;4690;52.422;13.486;2022-08-19T12:38:39;23.80;99.90
9305;DHT22;4690;52.422;13.486;2022-08-19T12:41:06;23.90;99.90
9305;DHT22;4690;52.422;13.486;2022-08-19T12:43:34;23.80;99.90
9305;DHT22;4690;52.422;13.486;2022-08-19T12:46:00;23.70;99.90
9305;DHT22;4690;52.422;13.486;2022-08-19T12:48:27;23.70;99.90
9305;DHT22;4690;52.422;13.486;2022-08-19T12:50:53;23.70;99.90
9305;DHT22;4690;52.422;13.486;2022-08-19T12:53:19;23.80;99.90
9305;DHT22;4690;52.422;13.486;2022-08-19T12:55:45;24.10;99.90
9305;DHT22;4690;52.422;13.486;2022-08-19T12:58:11;24.20;99.90
9305;DHT22;4690;52.422;13.486;2022-08-19T13:00:38;24.60;99.90
9305;DHT22;4690;52.422;13.486;2022-08-19T13:03:04;24.70;99.90
9305;DHT22;4690;52.422;13.486;2022-08-19T13:05:32;24.60;99.90
9305;DHT22;4690;52.422;13.486;2022-08-19T13:07:59;24.50;99.90
9305;DHT22;4690;52.422;13.486;2022-08-19T13:10:32;24.30;99.90
9305;DHT22;4690;52.422;13.486;2022-08-19T13:13:01;24.10;99.90
9305;DHT22;4690;52.422;13.486;2022-08-19T13:15:38;24.10;99.90
9305;DHT22;4690;52.422;13.486;2022-08-19T13:18:08;24.00;99.90
9305;DHT22;4690;52.422;13.486;2022-08-19T13:20:37;24.00;99.90
9305;DHT22;4690;52.422;13.486;2022-08-19T13:23:03;23.90;99.90
9305;DHT22;4690;52.422;13.486;2022-08-19T13:25:30;23.90;99.90
9305;DHT22;4690;52.422;13.486;2022-08-19T13:27:56;23.90;99.90
9305;DHT22;4690;52.422;13.486;2022-08-19T13:30:22;23.90;99.90
9305;DHT22;4690;52.422;13.486;2022-08-19T13:33:08;23.90;99.90
9305;DHT22;4690;52.422;13.486;2022-08-19T13:35:50;23.80;99.90
9305;DHT22;4690;52.422;13.486;2022-08-19T13:38:23;23.80;99.90
9305;DHT22;4690;52.422;13.486;2022-08-19T13:40:51;23.80;99.90
9305;DHT22;4690;52.422;13.486;2022-08-19T13:43:18;23.70;99.90
9305;DHT22;4690;52.422;13.486;2022-08-19T13:45:47;23.70;99.90
9305;DHT22;4690;52.422;13.486;2022-08-19T13:48:14;23.70;99.90
9305;DHT22;4690;52.422;13.486;2022-08-19T13:50:43;23.60;99.90
9305;DHT22;4690;52.422;13.486;2022-08-19T13:53:12;23.60;99.90
9305;DHT22;4690;52.422;13.486;2022-08-19T13:55:39;23.60;99.90
9305;DHT22;4690;52.422;13.486;2022-08-19T13:58:07;23.60;99.90
9305;DHT22;4690;52.422;13.486;2022-08-19T14:00:40;23.70;99.90
9305;DHT22;4690;52.422;13.486;2022-08-19T14:03:09;23.80;99.90
9305;DHT22;4690;52.422;13.486;2022-08-19T14:05:35;23.90;99.90
9305;DHT22;4690;52.422;13.486;2022-08-19T14:08:02;23.90;99.90
9305;DHT22;4690;52.422;13.486;2022-08-19T14:10:28;23.90;99.90
9305;DHT22;4690;52.422;13.486;2022-08-19T14:12:58;23.90;99.90
9305;DHT22;4690;52.422;13.486;2022-08-19T14:15:26;24.00;99.90
9305;DHT22;4690;52.422;13.486;2022-08-19T14:17:54;24.00;99.90
9305;DHT22;4690;52.422;13.486;2022-08-19T14:20:20;23.90;99.90
9305;DHT22;4690;52.422;13.486;2022-08-19T14:22:48;23.90;99.90
9305;DHT22;4690;52.422;13.486;2022-08-19T14:25:19;23.80;99.90
9305;DHT22;4690;52.422;13.486;2022-08-19T14:27:48;23.80;99.90
9305;DHT22;4690;52.422;13.486;2022-08-19T14:30:20;23.70;99.90
9305;DHT22;4690;52.422;13.486;2022-08-19T14:32:48;23.80;99.90
9305;DHT22;4690;52.422;13.486;2022-08-19T14:35:15;23.80;99.90
9305;DHT22;4690;52.422;13.486;2022-08-19T14:37:43;23.80;99.90
9305;DHT22;4690;52.422;13.486;2022-08-19T14:40:11;23.80;99.90
9305;DHT22;4690;52.422;13.486;2022-08-19T14:42:42;23.80;99.90
9305;DHT22;4690;52.422;13.486;2022-08-19T14:45:10;23.80;99.90
9305;DHT22;4690;52.422;13.486;2022-08-19T14:47:38;23.80;99.90
9305;DHT22;4690;52.422;13.486;2022-08-19T14:50:08;23.80;99.90
9305;DHT22;4690;52.422;13.486;2022-08-19T14:52:35;23.70;99.90
9305;DHT22;4690;52.422;13.486;2022-08-19T14:55:02;23.60;99.90
9305;DHT22;4690;52.422;13.486;2022-08-19T14:57:28;23.60;99.90
9305;DHT22;4690;52.422;13.486;2022-08-19T14:59:54;23.70;99.90
9305;DHT22;4690;52.422;13.486;2022-08-19T15:02:20;23.60;99.90
9305;DHT22;4690;52.422;13.486;2022-08-19T15:04:46;23.70;99.90
9305;DHT22;4690;52.422;13.486;2022-08-19T15:07:12;23.60;99.90
9305;DHT22;4690;52.422;13.486;2022-08-19T15:09:37;23.60;99.90
9305;DHT22;4690;52.422;13.486;2022-08-19T15:12:03;23.60;99.90
9305;DHT22;4690;52.422;13.486;2022-08-19T15:14:30;23.70;99.90
9305;DHT22;4690;52.422;13.486;2022-08-19T15:17:04;23.60;99.90
9305;DHT22;4690;52.422;13.486;2022-08-19T15:19:30;23.60;99.90
9305;DHT22;4690;52.422;13.486;2022-08-19T15:21:58;23.60;99.90
9305;DHT22;4690;52.422;13.486;2022-08-19T15:24:24;23.60;99.90
9305;DHT22;4690;52.422;13.486;2022-08-19T15:26:52;23.60;99.90
9305;DHT22;4690;52.422;13.486;2022-08-19T15:29:21;23.60;99.90
9305;DHT22;4690;52.422;13.486;2022-08-19T15:31:50;23.60;99.90
9305;DHT22;4690;52.422;13.486;2022-08-19T15:34:17;23.50;99.90
9305;DHT22;4690;52.422;13.486;2022-08-19T15:36:43;23.50;99.90
9305;DHT22;4690;52.422;13.486;2022-08-19T15:39:08;23.40;99.90
9305;DHT22;4690;52.422;13.486;2022-08-19T15:41:35;23.40;99.90
9305;DHT22;4690;52.422;13.486;2022-08-19T15:44:07;23.30;99.90
9305;DHT22;4690;52.422;13.486;2022-08-19T15:46:36;23.30;99.90
9305;DHT22;4690;52.422;13.486;2022-08-19T15:49:05;23.30;99.90
9305;DHT22;4690;52.422;13.486;2022-08-19T15:51:33;23.30;99.90
9305;DHT22;4690;52.422;13.486;2022-08-19T15:54:03;23.30;99.90
9305;DHT22;4690;52.422;13.486;2022-08-19T15:56:30;23.20;99.90
9305;DHT22;4690;52.422;13.486;2022-08-19T15:59:14;23.20;99.90
9305;DHT22;4690;52.422;13.486;2022-08-19T16:01:58;23.20;99.90
9305;DHT22;4690;52.422;13.486;2022-08-19T16:04:43;23.20;99.90
9305;DHT22;4690;52.422;13.486;2022-08-19T16:07:27;23.10;99.90
9305;DHT22;4690;52.422;13.486;2022-08-19T16:09:53;23.00;99.90
9305;DHT22;4690;52.422;13.486;2022-08-19T16:12:18;23.00;99.90
9305;DHT22;4690;52.422;13.486;2022-08-19T16:14:44;23.00;99.90
9305;DHT22;4690;52.422;13.486;2022-08-19T16:17:12;22.90;99.90